Terminal Aerodrome Forecast
Issued by NWS

Home | Current Version | Previous Version | Text Only | Print | Product List | Glossary On
Versions: 1 2 3 4 5 6 7 8 9 10 11 12 13 14 15 16
000
FTUS46 KSEW 222320
TAFOLM
TAF
KOLM 222320Z 2300/2324 VRB03KT P6SM SCT100 SCT200
     FM230600 VRB03KT P6SM SCT080 BKN200
     FM231200 20003KT P6SM SCT010 BKN080 OVC100
      TEMPO 2314/2317 4SM BR OVC006
     FM231900 18004KT P6SM SCT080=

USA.gov is the U.S. government's official web portal to all federal, state and local government web resources and services.